sensor_id;sensor_type;location;lat;lon;timestamp;temperature;humidity
21033;DHT22;10675;47.976;7.824;2023-08-06T00:01:30;16.40;99.90
21033;DHT22;10675;47.976;7.824;2023-08-06T00:03:56;16.30;99.90
21033;DHT22;10675;47.976;7.824;2023-08-06T00:06:21;16.20;99.90
21033;DHT22;10675;47.976;7.824;2023-08-06T00:08:47;16.10;99.90
21033;DHT22;10675;47.976;7.824;2023-08-06T00:11:12;16.00;99.90
21033;DHT22;10675;47.976;7.824;2023-08-06T00:13:38;16.00;99.90
21033;DHT22;10675;47.976;7.824;2023-08-06T00:16:12;15.90;99.90
21033;DHT22;10675;47.976;7.824;2023-08-06T00:18:38;15.80;99.90
21033;DHT22;10675;47.976;7.824;2023-08-06T00:21:04;15.80;99.90
21033;DHT22;10675;47.976;7.824;2023-08-06T00:23:30;15.80;99.90
21033;DHT22;10675;47.976;7.824;2023-08-06T00:25:55;15.80;99.90
21033;DHT22;10675;47.976;7.824;2023-08-06T00:28:21;15.80;99.90
21033;DHT22;10675;47.976;7.824;2023-08-06T00:30:46;15.70;99.90
21033;DHT22;10675;47.976;7.824;2023-08-06T00:33:17;15.70;99.90
21033;DHT22;10675;47.976;7.824;2023-08-06T00:35:42;15.80;99.90
21033;DHT22;10675;47.976;7.824;2023-08-06T00:38:08;15.90;99.90
21033;DHT22;10675;47.976;7.824;2023-08-06T00:40:33;15.90;99.90
21033;DHT22;10675;47.976;7.824;2023-08-06T00:42:59;15.90;99.90
21033;DHT22;10675;47.976;7.824;2023-08-06T00:45:25;15.90;99.90
21033;DHT22;10675;47.976;7.824;2023-08-06T00:47:51;16.00;99.90
21033;DHT22;10675;47.976;7.824;2023-08-06T00:50:17;16.00;99.90
21033;DHT22;10675;47.976;7.824;2023-08-06T00:52:44;16.00;99.90
21033;DHT22;10675;47.976;7.824;2023-08-06T00:55:10;16.20;99.90
21033;DHT22;10675;47.976;7.824;2023-08-06T00:57:35;16.30;99.90
21033;DHT22;10675;47.976;7.824;2023-08-06T01:00:01;16.30;99.90
21033;DHT22;10675;47.976;7.824;2023-08-06T01:02:27;16.20;99.90
21033;DHT22;10675;47.976;7.824;2023-08-06T01:04:53;16.20;99.90
21033;DHT22;10675;47.976;7.824;2023-08-06T01:07:25;16.10;99.90
21033;DHT22;10675;47.976;7.824;2023-08-06T01:10:23;16.30;99.90
21033;DHT22;10675;47.976;7.824;2023-08-06T01:15:26;16.40;99.90
21033;DHT22;10675;47.976;7.824;2023-08-06T01:17:53;16.40;99.90
21033;DHT22;10675;47.976;7.824;2023-08-06T01:20:19;16.50;99.90
21033;DHT22;10675;47.976;7.824;2023-08-06T01:22:44;16.50;99.90
21033;DHT22;10675;47.976;7.824;2023-08-06T01:25:10;16.60;99.90
21033;DHT22;10675;47.976;7.824;2023-08-06T01:27:44;16.60;99.90
21033;DHT22;10675;47.976;7.824;2023-08-06T01:30:29;16.70;99.90
21033;DHT22;10675;47.976;7.824;2023-08-06T01:32:59;16.80;99.90
21033;DHT22;10675;47.976;7.824;2023-08-06T01:35:27;16.90;99.90
21033;DHT22;10675;47.976;7.824;2023-08-06T01:37:54;16.90;99.90
21033;DHT22;10675;47.976;7.824;2023-08-06T01:40:21;16.90;99.90
21033;DHT22;10675;47.976;7.824;2023-08-06T01:42:47;16.90;99.90
21033;DHT22;10675;47.976;7.824;2023-08-06T01:45:12;17.00;99.90
21033;DHT22;10675;47.976;7.824;2023-08-06T01:47:38;17.00;99.90
21033;DHT22;10675;47.976;7.824;2023-08-06T01:50:04;17.00;99.90
21033;DHT22;10675;47.976;7.824;2023-08-06T01:52:29;17.00;99.90
21033;DHT22;10675;47.976;7.824;2023-08-06T01:54:55;16.90;99.90
21033;DHT22;10675;47.976;7.824;2023-08-06T01:57:21;17.00;99.90
21033;DHT22;10675;47.976;7.824;2023-08-06T01:59:46;16.90;99.90
21033;DHT22;10675;47.976;7.824;2023-08-06T02:02:12;17.00;99.90
21033;DHT22;10675;47.976;7.824;2023-08-06T02:04:37;16.90;99.90
21033;DHT22;10675;47.976;7.824;2023-08-06T02:07:03;16.90;99.90
21033;DHT22;10675;47.976;7.824;2023-08-06T02:09:29;16.80;99.90
21033;DHT22;10675;47.976;7.824;2023-08-06T02:11:54;16.70;99.90
21033;DHT22;10675;47.976;7.824;2023-08-06T02:14:20;16.60;99.90
21033;DHT22;10675;47.976;7.824;2023-08-06T02:16:45;16.50;99.90
21033;DHT22;10675;47.976;7.824;2023-08-06T02:19:11;16.40;99.90
21033;DHT22;10675;47.976;7.824;2023-08-06T02:21:36;16.40;99.90
21033;DHT22;10675;47.976;7.824;2023-08-06T02:24:02;16.30;99.90
21033;DHT22;10675;47.976;7.824;2023-08-06T02:26:28;16.30;99.90
21033;DHT22;10675;47.976;7.824;2023-08-06T02:28:53;16.20;99.90
21033;DHT22;10675;47.976;7.824;2023-08-06T02:31:19;16.10;99.90
21033;DHT22;10675;47.976;7.824;2023-08-06T02:33:44;16.00;99.90
21033;DHT22;10675;47.976;7.824;2023-08-06T02:36:10;15.90;99.90
21033;DHT22;10675;47.976;7.824;2023-08-06T02:38:35;15.80;99.90
21033;DHT22;10675;47.976;7.824;2023-08-06T02:41:04;15.80;99.90
21033;DHT22;10675;47.976;7.824;2023-08-06T02:43:30;15.70;99.90
21033;DHT22;10675;47.976;7.824;2023-08-06T02:45:59;15.50;99.90
21033;DHT22;10675;47.976;7.824;2023-08-06T02:48:25;15.50;99.90
21033;DHT22;10675;47.976;7.824;2023-08-06T02:50:50;15.40;99.90
21033;DHT22;10675;47.976;7.824;2023-08-06T02:53:16;15.20;99.90
21033;DHT22;10675;47.976;7.824;2023-08-06T02:55:46;15.10;99.90
21033;DHT22;10675;47.976;7.824;2023-08-06T02:58:13;15.00;99.90
21033;DHT22;10675;47.976;7.824;2023-08-06T03:00:39;14.90;99.90
21033;DHT22;10675;47.976;7.824;2023-08-06T03:03:04;14.80;99.90
21033;DHT22;10675;47.976;7.824;2023-08-06T03:05:30;14.60;99.90
21033;DHT22;10675;47.976;7.824;2023-08-06T03:07:55;14.50;99.90
21033;DHT22;10675;47.976;7.824;2023-08-06T03:10:21;14.40;99.90
21033;DHT22;10675;47.976;7.824;2023-08-06T03:12:46;14.40;99.90
21033;DHT22;10675;47.976;7.824;2023-08-06T03:15:12;14.30;99.90
21033;DHT22;10675;47.976;7.824;2023-08-06T03:17:38;14.20;99.90
21033;DHT22;10675;47.976;7.824;2023-08-06T03:20:04;14.20;99.90
21033;DHT22;10675;47.976;7.824;2023-08-06T03:22:30;14.10;99.90
21033;DHT22;10675;47.976;7.824;2023-08-06T03:24:55;14.10;99.90
21033;DHT22;10675;47.976;7.824;2023-08-06T03:27:21;14.10;99.90
21033;DHT22;10675;47.976;7.824;2023-08-06T03:29:51;14.10;99.90
21033;DHT22;10675;47.976;7.824;2023-08-06T03:32:17;14.10;99.90
21033;DHT22;10675;47.976;7.824;2023-08-06T03:34:42;14.10;99.90
21033;DHT22;10675;47.976;7.824;2023-08-06T03:37:08;14.10;99.90
21033;DHT22;10675;47.976;7.824;2023-08-06T03:39:34;14.00;99.90
21033;DHT22;10675;47.976;7.824;2023-08-06T03:41:59;14.00;99.90
21033;DHT22;10675;47.976;7.824;2023-08-06T03:44:25;14.00;99.90
21033;DHT22;10675;47.976;7.824;2023-08-06T03:46:52;14.00;99.90
21033;DHT22;10675;47.976;7.824;2023-08-06T03:49:17;14.10;99.90
21033;DHT22;10675;47.976;7.824;2023-08-06T03:51:43;14.10;99.90
21033;DHT22;10675;47.976;7.824;2023-08-06T03:54:08;14.10;99.90
21033;DHT22;10675;47.976;7.824;2023-08-06T03:56:34;14.10;99.90
21033;DHT22;10675;47.976;7.824;2023-08-06T03:58:59;14.20;99.90
21033;DHT22;10675;47.976;7.824;2023-08-06T04:01:25;14.20;99.90
21033;DHT22;10675;47.976;7.824;2023-08-06T04:03:50;14.20;99.90
21033;DHT22;10675;47.976;7.824;2023-08-06T04:06:16;14.20;99.90
21033;DHT22;10675;47.976;7.824;2023-08-06T04:08:41;14.10;99.90
21033;DHT22;10675;47.976;7.824;2023-08-06T04:11:07;14.20;99.90
21033;DHT22;10675;47.976;7.824;2023-08-06T04:13:33;14.20;99.90
21033;DHT22;10675;47.976;7.824;2023-08-06T04:16:02;14.30;99.90
21033;DHT22;10675;47.976;7.824;2023-08-06T04:18:28;14.20;99.90
21033;DHT22;10675;47.976;7.824;2023-08-06T04:20:54;14.20;99.90
21033;DHT22;10675;47.976;7.824;2023-08-06T04:23:20;14.10;99.90
21033;DHT22;10675;47.976;7.824;2023-08-06T04:25:46;14.10;99.90
21033;DHT22;10675;47.976;7.824;2023-08-06T04:28:11;14.10;99.90
21033;DHT22;10675;47.976;7.824;2023-08-06T04:30:37;14.10;99.90
21033;DHT22;10675;47.976;7.824;2023-08-06T04:33:03;14.10;99.90
21033;DHT22;10675;47.976;7.824;2023-08-06T04:35:29;14.10;99.90
21033;DHT22;10675;47.976;7.824;2023-08-06T04:37:54;14.00;99.90
21033;DHT22;10675;47.976;7.824;2023-08-06T04:40:20;14.00;99.90
21033;DHT22;10675;47.976;7.824;2023-08-06T04:42:45;14.10;99.90
21033;DHT22;10675;47.976;7.824;2023-08-06T04:45:11;14.10;99.90
21033;DHT22;10675;47.976;7.824;2023-08-06T04:47:36;14.30;99.90
21033;DHT22;10675;47.976;7.824;2023-08-06T04:50:02;14.50;99.90
21033;DHT22;10675;47.976;7.824;2023-08-06T04:52:27;14.60;99.90
21033;DHT22;10675;47.976;7.824;2023-08-06T04:54:54;14.60;99.90
21033;DHT22;10675;47.976;7.824;2023-08-06T04:57:20;14.60;99.90
21033;DHT22;10675;47.976;7.824;2023-08-06T04:59:46;14.50;99.90
21033;DHT22;10675;47.976;7.824;2023-08-06T05:02:11;14.40;99.90
21033;DHT22;10675;47.976;7.824;2023-08-06T05:04:37;14.50;99.90
21033;DHT22;10675;47.976;7.824;2023-08-06T05:07:03;14.20;99.90
21033;DHT22;10675;47.976;7.824;2023-08-06T05:09:29;14.30;99.90
21033;DHT22;10675;47.976;7.824;2023-08-06T05:11:54;14.10;99.90
21033;DHT22;10675;47.976;7.824;2023-08-06T05:14:20;13.80;99.90
21033;DHT22;10675;47.976;7.824;2023-08-06T05:16:45;13.70;99.90
21033;DHT22;10675;47.976;7.824;2023-08-06T05:19:11;13.60;99.90
21033;DHT22;10675;47.976;7.824;2023-08-06T05:21:36;13.60;99.90
21033;DHT22;10675;47.976;7.824;2023-08-06T05:24:02;13.50;99.90
21033;DHT22;10675;47.976;7.824;2023-08-06T05:26:27;13.40;99.90
21033;DHT22;10675;47.976;7.824;2023-08-06T05:28:53;13.40;99.90
21033;DHT22;10675;47.976;7.824;2023-08-06T05:31:18;13.40;99.90
21033;DHT22;10675;47.976;7.824;2023-08-06T05:33:44;13.40;99.90
21033;DHT22;10675;47.976;7.824;2023-08-06T05:36:09;13.50;99.90
21033;DHT22;10675;47.976;7.824;2023-08-06T05:38:35;13.40;99.90
21033;DHT22;10675;47.976;7.824;2023-08-06T05:41:00;13.40;99.90
21033;DHT22;10675;47.976;7.824;2023-08-06T05:43:26;13.40;99.90
21033;DHT22;10675;47.976;7.824;2023-08-06T05:45:52;13.40;99.90
21033;DHT22;10675;47.976;7.824;2023-08-06T05:48:17;13.40;99.90
21033;DHT22;10675;47.976;7.824;2023-08-06T05:50:43;13.30;99.90
21033;DHT22;10675;47.976;7.824;2023-08-06T05:53:08;13.40;99.90
21033;DHT22;10675;47.976;7.824;2023-08-06T05:55:34;13.40;99.90
21033;DHT22;10675;47.976;7.824;2023-08-06T05:58:00;13.40;99.90
21033;DHT22;10675;47.976;7.824;2023-08-06T06:00:26;13.40;99.90
21033;DHT22;10675;47.976;7.824;2023-08-06T06:02:52;13.40;99.90
21033;DHT22;10675;47.976;7.824;2023-08-06T06:05:17;13.50;99.90
21033;DHT22;10675;47.976;7.824;2023-08-06T06:07:43;13.50;99.90
21033;DHT22;10675;47.976;7.824;2023-08-06T06:10:08;13.50;99.90
21033;DHT22;10675;47.976;7.824;2023-08-06T06:12:34;13.50;99.90
21033;DHT22;10675;47.976;7.824;2023-08-06T06:15:00;13.70;99.90
21033;DHT22;10675;47.976;7.824;2023-08-06T06:17:26;13.70;99.90
21033;DHT22;10675;47.976;7.824;2023-08-06T06:19:52;13.80;99.90
21033;DHT22;10675;47.976;7.824;2023-08-06T06:22:18;13.80;99.90
21033;DHT22;10675;47.976;7.824;2023-08-06T06:24:43;13.80;99.90
21033;DHT22;10675;47.976;7.824;2023-08-06T06:27:09;13.80;99.90
21033;DHT22;10675;47.976;7.824;2023-08-06T06:29:34;13.80;99.90
21033;DHT22;10675;47.976;7.824;2023-08-06T06:32:00;13.70;99.90
21033;DHT22;10675;47.976;7.824;2023-08-06T06:34:25;13.60;99.90
21033;DHT22;10675;47.976;7.824;2023-08-06T06:36:51;13.50;99.90
21033;DHT22;10675;47.976;7.824;2023-08-06T06:39:17;13.50;99.90
21033;DHT22;10675;47.976;7.824;2023-08-06T06:41:43;13.50;99.90
21033;DHT22;10675;47.976;7.824;2023-08-06T06:44:09;13.50;99.90
21033;DHT22;10675;47.976;7.824;2023-08-06T06:46:35;13.60;99.90
21033;DHT22;10675;47.976;7.824;2023-08-06T06:49:00;13.50;99.90
21033;DHT22;10675;47.976;7.824;2023-08-06T06:51:26;13.50;99.90
21033;DHT22;10675;47.976;7.824;2023-08-06T06:53:51;13.50;99.90
21033;DHT22;10675;47.976;7.824;2023-08-06T06:56:17;13.50;99.90
21033;DHT22;10675;47.976;7.824;2023-08-06T06:58:42;13.50;99.90
21033;DHT22;10675;47.976;7.824;2023-08-06T07:01:09;13.50;99.90
21033;DHT22;10675;47.976;7.824;2023-08-06T07:03:37;13.50;99.90
21033;DHT22;10675;47.976;7.824;2023-08-06T07:06:02;13.40;99.90
21033;DHT22;10675;47.976;7.824;2023-08-06T07:08:29;13.40;99.90
21033;DHT22;10675;47.976;7.824;2023-08-06T07:11:05;13.30;99.90
21033;DHT22;10675;47.976;7.824;2023-08-06T07:13:31;13.30;99.90
21033;DHT22;10675;47.976;7.824;2023-08-06T07:15:57;13.30;99.90
21033;DHT22;10675;47.976;7.824;2023-08-06T07:18:23;13.30;99.90
21033;DHT22;10675;47.976;7.824;2023-08-06T07:20:53;13.30;99.90
21033;DHT22;10675;47.976;7.824;2023-08-06T07:23:24;13.40;99.90
21033;DHT22;10675;47.976;7.824;2023-08-06T07:25:49;13.40;99.90
21033;DHT22;10675;47.976;7.824;2023-08-06T07:28:15;13.50;99.90
21033;DHT22;10675;47.976;7.824;2023-08-06T07:30:42;13.50;99.90
21033;DHT22;10675;47.976;7.824;2023-08-06T07:33:08;13.50;99.90
21033;DHT22;10675;47.976;7.824;2023-08-06T07:35:34;13.60;99.90
21033;DHT22;10675;47.976;7.824;2023-08-06T07:38:00;13.60;99.90
21033;DHT22;10675;47.976;7.824;2023-08-06T07:40:26;13.70;99.90
21033;DHT22;10675;47.976;7.824;2023-08-06T07:42:51;13.70;99.90
21033;DHT22;10675;47.976;7.824;2023-08-06T07:45:17;13.70;99.90
21033;DHT22;10675;47.976;7.824;2023-08-06T07:47:42;13.70;99.90
21033;DHT22;10675;47.976;7.824;2023-08-06T07:50:09;13.70;99.90
21033;DHT22;10675;47.976;7.824;2023-08-06T07:52:34;13.70;99.90
21033;DHT22;10675;47.976;7.824;2023-08-06T07:55:00;13.80;99.90
21033;DHT22;10675;47.976;7.824;2023-08-06T07:57:27;13.90;99.90
21033;DHT22;10675;47.976;7.824;2023-08-06T07:59:52;13.90;99.90
21033;DHT22;10675;47.976;7.824;2023-08-06T08:02:19;14.00;99.90
21033;DHT22;10675;47.976;7.824;2023-08-06T08:04:45;14.00;99.90
21033;DHT22;10675;47.976;7.824;2023-08-06T08:07:12;14.00;99.90
21033;DHT22;10675;47.976;7.824;2023-08-06T08:09:38;14.00;99.90
21033;DHT22;10675;47.976;7.824;2023-08-06T08:12:04;14.00;99.90
21033;DHT22;10675;47.976;7.824;2023-08-06T08:14:29;13.90;99.90
21033;DHT22;10675;47.976;7.824;2023-08-06T08:17:01;13.90;99.90
21033;DHT22;10675;47.976;7.824;2023-08-06T08:19:28;13.90;99.90
21033;DHT22;10675;47.976;7.824;2023-08-06T08:21:53;13.80;99.90
21033;DHT22;10675;47.976;7.824;2023-08-06T08:24:20;13.90;99.90
21033;DHT22;10675;47.976;7.824;2023-08-06T08:26:46;13.90;99.90
21033;DHT22;10675;47.976;7.824;2023-08-06T08:29:12;13.90;99.90
21033;DHT22;10675;47.976;7.824;2023-08-06T08:31:37;13.90;99.90
21033;DHT22;10675;47.976;7.824;2023-08-06T08:34:05;13.90;99.90
21033;DHT22;10675;47.976;7.824;2023-08-06T08:36:31;13.80;99.90
21033;DHT22;10675;47.976;7.824;2023-08-06T08:38:57;13.80;99.90
21033;DHT22;10675;47.976;7.824;2023-08-06T08:41:22;13.70;99.90
21033;DHT22;10675;47.976;7.824;2023-08-06T08:43:50;13.70;99.90
21033;DHT22;10675;47.976;7.824;2023-08-06T08:46:18;13.60;99.90
21033;DHT22;10675;47.976;7.824;2023-08-06T08:48:44;13.70;99.90
21033;DHT22;10675;47.976;7.824;2023-08-06T08:51:10;13.70;99.90
21033;DHT22;10675;47.976;7.824;2023-08-06T08:53:37;13.80;99.90
21033;DHT22;10675;47.976;7.824;2023-08-06T08:56:05;13.90;99.90
21033;DHT22;10675;47.976;7.824;2023-08-06T08:58:32;14.00;99.90
21033;DHT22;10675;47.976;7.824;2023-08-06T09:00:58;14.00;99.90
21033;DHT22;10675;47.976;7.824;2023-08-06T09:03:24;14.10;99.90
21033;DHT22;10675;47.976;7.824;2023-08-06T09:05:53;14.10;99.90
21033;DHT22;10675;47.976;7.824;2023-08-06T09:08:23;14.10;99.90
21033;DHT22;10675;47.976;7.824;2023-08-06T09:10:50;14.20;99.90
21033;DHT22;10675;47.976;7.824;2023-08-06T09:13:17;14.10;99.90
21033;DHT22;10675;47.976;7.824;2023-08-06T09:15:43;13.50;99.90
21033;DHT22;10675;47.976;7.824;2023-08-06T09:18:12;14.10;99.90
21033;DHT22;10675;47.976;7.824;2023-08-06T09:20:39;14.10;99.90
21033;DHT22;10675;47.976;7.824;2023-08-06T09:23:10;14.20;99.90
21033;DHT22;10675;47.976;7.824;2023-08-06T09:25:39;14.20;99.90
21033;DHT22;10675;47.976;7.824;2023-08-06T09:28:08;14.10;99.90
21033;DHT22;10675;47.976;7.824;2023-08-06T09:30:36;14.20;99.90
21033;DHT22;10675;47.976;7.824;2023-08-06T09:33:03;14.20;99.90
21033;DHT22;10675;47.976;7.824;2023-08-06T09:35:29;14.30;99.90
21033;DHT22;10675;47.976;7.824;2023-08-06T09:37:56;14.30;99.90
21033;DHT22;10675;47.976;7.824;2023-08-06T09:40:30;14.30;99.90
21033;DHT22;10675;47.976;7.824;2023-08-06T09:42:57;14.30;99.90
21033;DHT22;10675;47.976;7.824;2023-08-06T09:45:28;14.30;99.90
21033;DHT22;10675;47.976;7.824;2023-08-06T09:47:57;14.30;99.90
21033;DHT22;10675;47.976;7.824;2023-08-06T09:50:23;14.30;99.90
21033;DHT22;10675;47.976;7.824;2023-08-06T09:52:53;14.30;99.90
21033;DHT22;10675;47.976;7.824;2023-08-06T09:55:21;14.30;99.90
21033;DHT22;10675;47.976;7.824;2023-08-06T09:57:47;14.30;99.90
21033;DHT22;10675;47.976;7.824;2023-08-06T10:00:13;14.50;99.90
21033;DHT22;10675;47.976;7.824;2023-08-06T10:02:40;14.50;99.90
21033;DHT22;10675;47.976;7.824;2023-08-06T10:05:09;14.60;99.90
21033;DHT22;10675;47.976;7.824;2023-08-06T10:07:35;14.80;99.90
21033;DHT22;10675;47.976;7.824;2023-08-06T10:10:02;14.80;99.90
21033;DHT22;10675;47.976;7.824;2023-08-06T10:12:40;14.70;99.90
21033;DHT22;10675;47.976;7.824;2023-08-06T10:15:10;14.70;99.90
21033;DHT22;10675;47.976;7.824;2023-08-06T10:17:37;14.70;99.90
21033;DHT22;10675;47.976;7.824;2023-08-06T10:20:05;14.70;99.90
21033;DHT22;10675;47.976;7.824;2023-08-06T10:22:33;14.70;99.90
21033;DHT22;10675;47.976;7.824;2023-08-06T10:24:59;14.60;99.90
21033;DHT22;10675;47.976;7.824;2023-08-06T10:27:52;14.90;99.90
21033;DHT22;10675;47.976;7.824;2023-08-06T10:30:29;14.80;99.90
21033;DHT22;10675;47.976;7.824;2023-08-06T10:33:00;14.60;99.90
21033;DHT22;10675;47.976;7.824;2023-08-06T10:35:55;14.60;99.90
21033;DHT22;10675;47.976;7.824;2023-08-06T10:38:26;14.50;99.90
21033;DHT22;10675;47.976;7.824;2023-08-06T10:43:28;14.60;99.90
21033;DHT22;10675;47.976;7.824;2023-08-06T10:45:54;14.60;99.90
21033;DHT22;10675;47.976;7.824;2023-08-06T10:48:44;14.70;99.90
21033;DHT22;10675;47.976;7.824;2023-08-06T10:51:12;15.90;99.90
21033;DHT22;10675;47.976;7.824;2023-08-06T10:53:42;15.40;99.90
21033;DHT22;10675;47.976;7.824;2023-08-06T10:56:14;14.90;99.90
21033;DHT22;10675;47.976;7.824;2023-08-06T10:58:41;14.80;99.90
21033;DHT22;10675;47.976;7.824;2023-08-06T11:01:07;14.80;99.90
21033;DHT22;10675;47.976;7.824;2023-08-06T11:03:33;14.70;99.90
21033;DHT22;10675;47.976;7.824;2023-08-06T11:05:59;14.70;99.90
21033;DHT22;10675;47.976;7.824;2023-08-06T11:08:26;14.60;99.90
21033;DHT22;10675;47.976;7.824;2023-08-06T11:10:53;14.60;99.90
21033;DHT22;10675;47.976;7.824;2023-08-06T11:13:19;14.60;99.90
21033;DHT22;10675;47.976;7.824;2023-08-06T11:15:45;14.60;99.90
21033;DHT22;10675;47.976;7.824;2023-08-06T11:18:11;14.60;99.90
21033;DHT22;10675;47.976;7.824;2023-08-06T11:20:37;14.60;99.90
21033;DHT22;10675;47.976;7.824;2023-08-06T11:23:03;14.60;99.90
21033;DHT22;10675;47.976;7.824;2023-08-06T11:25:29;14.60;99.90
21033;DHT22;10675;47.976;7.824;2023-08-06T11:27:55;14.60;99.90
21033;DHT22;10675;47.976;7.824;2023-08-06T11:30:21;14.70;99.90
21033;DHT22;10675;47.976;7.824;2023-08-06T11:32:49;14.70;99.90
21033;DHT22;10675;47.976;7.824;2023-08-06T11:35:15;14.70;99.90
21033;DHT22;10675;47.976;7.824;2023-08-06T11:37:45;14.80;99.90
21033;DHT22;10675;47.976;7.824;2023-08-06T11:40:11;14.90;99.90
21033;DHT22;10675;47.976;7.824;2023-08-06T11:42:37;15.20;99.90
21033;DHT22;10675;47.976;7.824;2023-08-06T11:45:03;15.00;99.90
21033;DHT22;10675;47.976;7.824;2023-08-06T11:47:30;15.00;99.90
21033;DHT22;10675;47.976;7.824;2023-08-06T11:49:56;15.10;99.90
21033;DHT22;10675;47.976;7.824;2023-08-06T11:52:25;15.10;99.90
21033;DHT22;10675;47.976;7.824;2023-08-06T11:55:07;15.10;99.90
21033;DHT22;10675;47.976;7.824;2023-08-06T11:57:36;15.10;99.90
21033;DHT22;10675;47.976;7.824;2023-08-06T12:00:11;15.10;99.90
21033;DHT22;10675;47.976;7.824;2023-08-06T12:02:39;15.20;99.90
21033;DHT22;10675;47.976;7.824;2023-08-06T12:05:13;15.10;99.90
21033;DHT22;10675;47.976;7.824;2023-08-06T12:07:40;14.90;99.90
21033;DHT22;10675;47.976;7.824;2023-08-06T12:10:07;14.90;99.90
21033;DHT22;10675;47.976;7.824;2023-08-06T12:12:34;14.90;99.90
21033;DHT22;10675;47.976;7.824;2023-08-06T12:14:59;15.10;99.90
21033;DHT22;10675;47.976;7.824;2023-08-06T12:17:25;15.30;99.90
21033;DHT22;10675;47.976;7.824;2023-08-06T12:19:51;15.40;99.90
21033;DHT22;10675;47.976;7.824;2023-08-06T12:22:17;15.60;99.90
21033;DHT22;10675;47.976;7.824;2023-08-06T12:24:44;15.60;99.90
21033;DHT22;10675;47.976;7.824;2023-08-06T12:27:11;15.60;99.90
21033;DHT22;10675;47.976;7.824;2023-08-06T12:29:47;15.60;99.90
21033;DHT22;10675;47.976;7.824;2023-08-06T12:32:13;15.70;99.90
21033;DHT22;10675;47.976;7.824;2023-08-06T12:34:40;15.80;99.90
21033;DHT22;10675;47.976;7.824;2023-08-06T12:37:06;15.90;99.90
21033;DHT22;10675;47.976;7.824;2023-08-06T12:39:37;15.80;99.90
21033;DHT22;10675;47.976;7.824;2023-08-06T12:42:04;15.80;99.90
21033;DHT22;10675;47.976;7.824;2023-08-06T12:44:31;15.70;99.90
21033;DHT22;10675;47.976;7.824;2023-08-06T12:46:56;15.60;99.90
21033;DHT22;10675;47.976;7.824;2023-08-06T12:49:22;15.50;99.90
21033;DHT22;10675;47.976;7.824;2023-08-06T12:51:49;15.30;99.90
21033;DHT22;10675;47.976;7.824;2023-08-06T12:54:16;15.20;99.90
21033;DHT22;10675;47.976;7.824;2023-08-06T12:56:43;14.90;99.90
21033;DHT22;10675;47.976;7.824;2023-08-06T12:59:08;14.80;99.90
21033;DHT22;10675;47.976;7.824;2023-08-06T13:01:34;14.90;99.90
21033;DHT22;10675;47.976;7.824;2023-08-06T13:04:00;15.00;99.90
21033;DHT22;10675;47.976;7.824;2023-08-06T13:06:25;15.40;99.90
21033;DHT22;10675;47.976;7.824;2023-08-06T13:08:51;15.50;99.90
21033;DHT22;10675;47.976;7.824;2023-08-06T13:11:16;15.70;99.90
21033;DHT22;10675;47.976;7.824;2023-08-06T13:13:42;15.80;99.90
21033;DHT22;10675;47.976;7.824;2023-08-06T13:16:08;15.90;99.90
21033;DHT22;10675;47.976;7.824;2023-08-06T13:18:33;16.20;99.90
21033;DHT22;10675;47.976;7.824;2023-08-06T13:20:59;16.30;99.90
21033;DHT22;10675;47.976;7.824;2023-08-06T13:23:24;16.20;99.90
21033;DHT22;10675;47.976;7.824;2023-08-06T13:25:50;16.10;99.90
21033;DHT22;10675;47.976;7.824;2023-08-06T13:28:15;16.10;99.90
21033;DHT22;10675;47.976;7.824;2023-08-06T13:30:41;16.00;99.90
21033;DHT22;10675;47.976;7.824;2023-08-06T13:33:11;16.00;99.90
21033;DHT22;10675;47.976;7.824;2023-08-06T13:35:37;16.00;99.90
21033;DHT22;10675;47.976;7.824;2023-08-06T13:38:02;16.00;99.90
21033;DHT22;10675;47.976;7.824;2023-08-06T13:40:29;16.00;99.90
21033;DHT22;10675;47.976;7.824;2023-08-06T13:42:55;15.90;99.90
21033;DHT22;10675;47.976;7.824;2023-08-06T13:45:21;16.00;99.90
21033;DHT22;10675;47.976;7.824;2023-08-06T13:47:47;15.90;99.90
21033;DHT22;10675;47.976;7.824;2023-08-06T13:50:13;15.90;99.90
21033;DHT22;10675;47.976;7.824;2023-08-06T13:52:39;15.90;99.90
21033;DHT22;10675;47.976;7.824;2023-08-06T13:55:05;16.00;99.90
21033;DHT22;10675;47.976;7.824;2023-08-06T13:57:31;15.90;99.90
21033;DHT22;10675;47.976;7.824;2023-08-06T13:59:56;15.90;99.90
21033;DHT22;10675;47.976;7.824;2023-08-06T14:02:22;15.90;99.90
21033;DHT22;10675;47.976;7.824;2023-08-06T14:04:48;15.90;99.90
21033;DHT22;10675;47.976;7.824;2023-08-06T14:07:14;15.90;99.90
21033;DHT22;10675;47.976;7.824;2023-08-06T14:09:39;15.90;99.90
21033;DHT22;10675;47.976;7.824;2023-08-06T14:12:06;15.90;99.90
21033;DHT22;10675;47.976;7.824;2023-08-06T14:14:31;16.20;99.90
21033;DHT22;10675;47.976;7.824;2023-08-06T14:16:57;16.50;99.90
21033;DHT22;10675;47.976;7.824;2023-08-06T14:19:23;16.40;99.90
21033;DHT22;10675;47.976;7.824;2023-08-06T14:21:49;16.40;99.90
21033;DHT22;10675;47.976;7.824;2023-08-06T14:24:14;16.30;99.90
21033;DHT22;10675;47.976;7.824;2023-08-06T14:26:40;16.20;99.90
21033;DHT22;10675;47.976;7.824;2023-08-06T14:29:06;16.10;99.90
21033;DHT22;10675;47.976;7.824;2023-08-06T14:31:32;16.00;99.90
21033;DHT22;10675;47.976;7.824;2023-08-06T14:33:57;16.00;99.90
21033;DHT22;10675;47.976;7.824;2023-08-06T14:36:23;16.00;99.90
21033;DHT22;10675;47.976;7.824;2023-08-06T14:38:48;16.00;99.90
21033;DHT22;10675;47.976;7.824;2023-08-06T14:41:14;16.00;99.90
21033;DHT22;10675;47.976;7.824;2023-08-06T14:43:39;16.10;99.90
21033;DHT22;10675;47.976;7.824;2023-08-06T14:46:05;16.10;99.90
21033;DHT22;10675;47.976;7.824;2023-08-06T14:48:31;16.20;99.90
21033;DHT22;10675;47.976;7.824;2023-08-06T14:50:56;16.50;99.90
21033;DHT22;10675;47.976;7.824;2023-08-06T14:53:22;16.90;99.90
21033;DHT22;10675;47.976;7.824;2023-08-06T14:55:48;16.90;99.90
21033;DHT22;10675;47.976;7.824;2023-08-06T14:58:14;16.80;99.90
21033;DHT22;10675;47.976;7.824;2023-08-06T15:00:40;16.80;99.90
21033;DHT22;10675;47.976;7.824;2023-08-06T15:03:05;16.70;99.90
21033;DHT22;10675;47.976;7.824;2023-08-06T15:05:31;16.50;99.90
21033;DHT22;10675;47.976;7.824;2023-08-06T15:07:56;16.50;99.90
21033;DHT22;10675;47.976;7.824;2023-08-06T15:10:22;16.40;99.90
21033;DHT22;10675;47.976;7.824;2023-08-06T15:12:48;16.30;99.90
21033;DHT22;10675;47.976;7.824;2023-08-06T15:15:14;16.40;99.90
21033;DHT22;10675;47.976;7.824;2023-08-06T15:17:39;16.40;99.90
21033;DHT22;10675;47.976;7.824;2023-08-06T15:20:06;16.40;99.90
21033;DHT22;10675;47.976;7.824;2023-08-06T15:22:32;16.30;99.90
21033;DHT22;10675;47.976;7.824;2023-08-06T15:25:01;16.30;99.90
21033;DHT22;10675;47.976;7.824;2023-08-06T15:27:27;16.20;99.90
21033;DHT22;10675;47.976;7.824;2023-08-06T15:29:53;16.20;99.90
21033;DHT22;10675;47.976;7.824;2023-08-06T15:32:18;16.10;99.90